sensor_id;sensor_type;location;lat;lon;timestamp;P1;durP1;ratioP1;P2;durP2;ratioP2
351;SDS011;164;50.784;6.496;2023-03-30T00:00:11;3.00;;;1.85;;
351;SDS011;164;50.784;6.496;2023-03-30T00:02:43;2.95;;;1.67;;
351;SDS011;164;50.784;6.496;2023-03-30T00:05:11;3.80;;;1.70;;
351;SDS011;164;50.784;6.496;2023-03-30T00:07:38;3.50;;;1.20;;
351;SDS011;164;50.784;6.496;2023-03-30T00:10:09;4.35;;;1.73;;
351;SDS011;164;50.784;6.496;2023-03-30T00:12:37;3.20;;;1.55;;
351;SDS011;164;50.784;6.496;2023-03-30T00:15:05;3.38;;;2.03;;
351;SDS011;164;50.784;6.496;2023-03-30T00:17:46;2.67;;;2.45;;
351;SDS011;164;50.784;6.496;2023-03-30T00:20:14;5.72;;;3.30;;
351;SDS011;164;50.784;6.496;2023-03-30T00:22:43;5.20;;;2.50;;
351;SDS011;164;50.784;6.496;2023-03-30T00:25:13;4.47;;;3.08;;
351;SDS011;164;50.784;6.496;2023-03-30T00:27:40;3.85;;;2.30;;
351;SDS011;164;50.784;6.496;2023-03-30T00:30:09;6.85;;;2.67;;
351;SDS011;164;50.784;6.496;2023-03-30T00:32:37;3.20;;;2.25;;
351;SDS011;164;50.784;6.496;2023-03-30T00:35:05;7.25;;;2.05;;
351;SDS011;164;50.784;6.496;2023-03-30T00:37:32;3.38;;;1.83;;
351;SDS011;164;50.784;6.496;2023-03-30T00:40:03;5.15;;;2.35;;
351;SDS011;164;50.784;6.496;2023-03-30T00:42:33;2.75;;;1.70;;
351;SDS011;164;50.784;6.496;2023-03-30T00:45:14;6.40;;;2.00;;
351;SDS011;164;50.784;6.496;2023-03-30T00:47:42;5.90;;;2.30;;
351;SDS011;164;50.784;6.496;2023-03-30T00:50:12;4.93;;;2.00;;
351;SDS011;164;50.784;6.496;2023-03-30T00:52:41;4.78;;;2.20;;
351;SDS011;164;50.784;6.496;2023-03-30T00:55:09;7.35;;;2.40;;
351;SDS011;164;50.784;6.496;2023-03-30T00:57:39;2.88;;;1.77;;
351;SDS011;164;50.784;6.496;2023-03-30T01:00:07;3.85;;;1.70;;
351;SDS011;164;50.784;6.496;2023-03-30T01:02:36;2.70;;;2.55;;
351;SDS011;164;50.784;6.496;2023-03-30T01:05:06;5.63;;;1.85;;
351;SDS011;164;50.784;6.496;2023-03-30T01:07:34;4.07;;;2.42;;
351;SDS011;164;50.784;6.496;2023-03-30T01:10:03;2.83;;;1.80;;
351;SDS011;164;50.784;6.496;2023-03-30T01:12:30;6.15;;;2.50;;
351;SDS011;164;50.784;6.496;2023-03-30T01:14:59;7.10;;;2.60;;
351;SDS011;164;50.784;6.496;2023-03-30T01:22:47;4.47;;;2.05;;
351;SDS011;164;50.784;6.496;2023-03-30T01:25:29;6.38;;;2.10;;
351;SDS011;164;50.784;6.496;2023-03-30T01:30:50;2.60;;;2.05;;
351;SDS011;164;50.784;6.496;2023-03-30T01:36:13;7.75;;;2.97;;
351;SDS011;164;50.784;6.496;2023-03-30T01:38:59;4.50;;;2.22;;
351;SDS011;164;50.784;6.496;2023-03-30T01:41:29;5.63;;;2.20;;
351;SDS011;164;50.784;6.496;2023-03-30T01:44:02;6.03;;;2.40;;
351;SDS011;164;50.784;6.496;2023-03-30T01:46:31;7.43;;;2.03;;
351;SDS011;164;50.784;6.496;2023-03-30T01:49:00;6.00;;;3.05;;
351;SDS011;164;50.784;6.496;2023-03-30T01:51:32;3.28;;;2.30;;
351;SDS011;164;50.784;6.496;2023-03-30T01:54:04;5.07;;;2.67;;
351;SDS011;164;50.784;6.496;2023-03-30T01:56:33;9.55;;;3.70;;
351;SDS011;164;50.784;6.496;2023-03-30T01:59:03;6.13;;;3.00;;
351;SDS011;164;50.784;6.496;2023-03-30T02:01:31;7.20;;;2.65;;
351;SDS011;164;50.784;6.496;2023-03-30T02:04:02;2.90;;;2.15;;
351;SDS011;164;50.784;6.496;2023-03-30T02:06:30;7.97;;;2.70;;
351;SDS011;164;50.784;6.496;2023-03-30T02:09:04;5.57;;;2.65;;
351;SDS011;164;50.784;6.496;2023-03-30T02:11:32;5.07;;;2.47;;
351;SDS011;164;50.784;6.496;2023-03-30T02:14:00;11.02;;;3.13;;
351;SDS011;164;50.784;6.496;2023-03-30T02:16:29;6.22;;;3.38;;
351;SDS011;164;50.784;6.496;2023-03-30T02:18:59;6.45;;;3.08;;
351;SDS011;164;50.784;6.496;2023-03-30T02:21:28;6.75;;;3.30;;
351;SDS011;164;50.784;6.496;2023-03-30T02:23:57;7.05;;;3.55;;
351;SDS011;164;50.784;6.496;2023-03-30T02:26:26;5.40;;;2.00;;
351;SDS011;164;50.784;6.496;2023-03-30T02:28:54;3.10;;;1.30;;
351;SDS011;164;50.784;6.496;2023-03-30T02:31:21;3.45;;;2.03;;
351;SDS011;164;50.784;6.496;2023-03-30T02:33:55;3.75;;;1.88;;
351;SDS011;164;50.784;6.496;2023-03-30T02:36:36;3.60;;;1.85;;
351;SDS011;164;50.784;6.496;2023-03-30T02:39:09;6.80;;;2.85;;
351;SDS011;164;50.784;6.496;2023-03-30T02:41:59;4.70;;;2.47;;
351;SDS011;164;50.784;6.496;2023-03-30T02:44:31;4.20;;;2.20;;
351;SDS011;164;50.784;6.496;2023-03-30T02:47:04;4.88;;;2.15;;
351;SDS011;164;50.784;6.496;2023-03-30T02:49:37;5.80;;;2.90;;
351;SDS011;164;50.784;6.496;2023-03-30T02:52:07;5.22;;;2.10;;
351;SDS011;164;50.784;6.496;2023-03-30T02:54:39;8.68;;;2.65;;
351;SDS011;164;50.784;6.496;2023-03-30T02:57:13;7.07;;;2.88;;
351;SDS011;164;50.784;6.496;2023-03-30T02:59:44;5.78;;;2.40;;
351;SDS011;164;50.784;6.496;2023-03-30T03:02:14;6.20;;;2.50;;
351;SDS011;164;50.784;6.496;2023-03-30T03:04:44;6.03;;;2.47;;
351;SDS011;164;50.784;6.496;2023-03-30T03:07:11;3.75;;;2.28;;
351;SDS011;164;50.784;6.496;2023-03-30T03:09:39;5.28;;;3.20;;
351;SDS011;164;50.784;6.496;2023-03-30T03:12:07;5.82;;;2.80;;
351;SDS011;164;50.784;6.496;2023-03-30T03:14:36;6.18;;;2.60;;
351;SDS011;164;50.784;6.496;2023-03-30T03:17:03;4.85;;;2.50;;
351;SDS011;164;50.784;6.496;2023-03-30T03:19:31;9.63;;;2.97;;
351;SDS011;164;50.784;6.496;2023-03-30T03:21:58;3.70;;;2.20;;
351;SDS011;164;50.784;6.496;2023-03-30T03:24:25;3.55;;;2.60;;
351;SDS011;164;50.784;6.496;2023-03-30T03:26:53;4.90;;;2.85;;
351;SDS011;164;50.784;6.496;2023-03-30T03:29:21;4.65;;;2.67;;
351;SDS011;164;50.784;6.496;2023-03-30T03:31:49;3.72;;;2.40;;
351;SDS011;164;50.784;6.496;2023-03-30T03:34:16;3.05;;;1.95;;
351;SDS011;164;50.784;6.496;2023-03-30T03:36:44;4.85;;;2.50;;
351;SDS011;164;50.784;6.496;2023-03-30T03:39:11;3.25;;;2.15;;
351;SDS011;164;50.784;6.496;2023-03-30T03:41:39;3.65;;;2.80;;
351;SDS011;164;50.784;6.496;2023-03-30T03:44:06;6.70;;;3.97;;
351;SDS011;164;50.784;6.496;2023-03-30T03:46:42;5.68;;;3.85;;
351;SDS011;164;50.784;6.496;2023-03-30T03:49:11;6.30;;;3.60;;
351;SDS011;164;50.784;6.496;2023-03-30T03:51:38;9.63;;;3.60;;
351;SDS011;164;50.784;6.496;2023-03-30T03:59:45;5.75;;;2.80;;
351;SDS011;164;50.784;6.496;2023-03-30T04:02:12;7.75;;;2.97;;
351;SDS011;164;50.784;6.496;2023-03-30T04:04:41;6.32;;;2.95;;
351;SDS011;164;50.784;6.496;2023-03-30T04:07:08;5.05;;;2.17;;
351;SDS011;164;50.784;6.496;2023-03-30T04:09:36;5.70;;;3.13;;
351;SDS011;164;50.784;6.496;2023-03-30T04:12:03;4.93;;;2.83;;
351;SDS011;164;50.784;6.496;2023-03-30T04:14:30;5.45;;;3.30;;
351;SDS011;164;50.784;6.496;2023-03-30T04:16:58;8.93;;;3.17;;
351;SDS011;164;50.784;6.496;2023-03-30T04:19:26;7.72;;;3.33;;
351;SDS011;164;50.784;6.496;2023-03-30T04:21:56;6.78;;;4.55;;
351;SDS011;164;50.784;6.496;2023-03-30T04:24:24;5.00;;;2.67;;
351;SDS011;164;50.784;6.496;2023-03-30T04:26:53;7.63;;;3.40;;
351;SDS011;164;50.784;6.496;2023-03-30T04:29:22;4.70;;;2.83;;
351;SDS011;164;50.784;6.496;2023-03-30T04:31:49;7.20;;;3.35;;
351;SDS011;164;50.784;6.496;2023-03-30T04:34:16;4.82;;;3.30;;
351;SDS011;164;50.784;6.496;2023-03-30T04:36:46;5.50;;;3.40;;
351;SDS011;164;50.784;6.496;2023-03-30T04:39:14;5.60;;;3.25;;
351;SDS011;164;50.784;6.496;2023-03-30T04:41:44;6.55;;;2.97;;
351;SDS011;164;50.784;6.496;2023-03-30T04:44:12;8.93;;;3.35;;
351;SDS011;164;50.784;6.496;2023-03-30T04:46:39;3.78;;;2.45;;
351;SDS011;164;50.784;6.496;2023-03-30T04:49:06;7.47;;;2.22;;
351;SDS011;164;50.784;6.496;2023-03-30T04:51:34;5.93;;;2.40;;
351;SDS011;164;50.784;6.496;2023-03-30T04:54:01;3.90;;;2.35;;
351;SDS011;164;50.784;6.496;2023-03-30T04:56:30;6.60;;;2.22;;
351;SDS011;164;50.784;6.496;2023-03-30T04:58:57;8.43;;;2.40;;
351;SDS011;164;50.784;6.496;2023-03-30T05:01:25;4.90;;;2.55;;
351;SDS011;164;50.784;6.496;2023-03-30T05:03:52;4.95;;;2.47;;
351;SDS011;164;50.784;6.496;2023-03-30T05:06:20;5.28;;;2.58;;
351;SDS011;164;50.784;6.496;2023-03-30T05:08:47;4.00;;;2.70;;
351;SDS011;164;50.784;6.496;2023-03-30T05:11:15;4.68;;;2.30;;
351;SDS011;164;50.784;6.496;2023-03-30T05:13:43;3.00;;;2.08;;
351;SDS011;164;50.784;6.496;2023-03-30T05:16:11;3.15;;;1.80;;
351;SDS011;164;50.784;6.496;2023-03-30T05:18:38;3.20;;;1.92;;
351;SDS011;164;50.784;6.496;2023-03-30T05:21:06;3.30;;;2.25;;
351;SDS011;164;50.784;6.496;2023-03-30T05:23:33;2.22;;;1.60;;
351;SDS011;164;50.784;6.496;2023-03-30T05:26:00;6.07;;;2.38;;
351;SDS011;164;50.784;6.496;2023-03-30T05:28:28;5.00;;;2.17;;
351;SDS011;164;50.784;6.496;2023-03-30T05:30:57;5.30;;;2.42;;
351;SDS011;164;50.784;6.496;2023-03-30T05:33:24;4.15;;;2.85;;
351;SDS011;164;50.784;6.496;2023-03-30T05:35:51;3.30;;;2.00;;
351;SDS011;164;50.784;6.496;2023-03-30T05:38:19;7.53;;;2.60;;
351;SDS011;164;50.784;6.496;2023-03-30T05:40:50;5.15;;;2.15;;
351;SDS011;164;50.784;6.496;2023-03-30T05:43:17;3.08;;;1.70;;
351;SDS011;164;50.784;6.496;2023-03-30T05:45:45;3.40;;;2.22;;
351;SDS011;164;50.784;6.496;2023-03-30T05:48:13;3.20;;;1.95;;
351;SDS011;164;50.784;6.496;2023-03-30T05:50:40;6.32;;;2.10;;
351;SDS011;164;50.784;6.496;2023-03-30T05:53:08;2.42;;;1.90;;
351;SDS011;164;50.784;6.496;2023-03-30T05:55:35;2.58;;;1.60;;
351;SDS011;164;50.784;6.496;2023-03-30T05:58:03;4.03;;;2.33;;
351;SDS011;164;50.784;6.496;2023-03-30T06:00:31;1.90;;;1.60;;
351;SDS011;164;50.784;6.496;2023-03-30T06:03:00;5.75;;;2.45;;
351;SDS011;164;50.784;6.496;2023-03-30T06:05:29;4.35;;;2.30;;
351;SDS011;164;50.784;6.496;2023-03-30T06:07:59;2.95;;;1.80;;
351;SDS011;164;50.784;6.496;2023-03-30T06:10:26;5.53;;;2.25;;
351;SDS011;164;50.784;6.496;2023-03-30T06:12:53;3.03;;;1.35;;
351;SDS011;164;50.784;6.496;2023-03-30T06:15:21;3.10;;;1.70;;
351;SDS011;164;50.784;6.496;2023-03-30T06:17:48;2.22;;;2.05;;
351;SDS011;164;50.784;6.496;2023-03-30T06:20:16;2.45;;;1.95;;
351;SDS011;164;50.784;6.496;2023-03-30T06:22:47;4.60;;;1.90;;
351;SDS011;164;50.784;6.496;2023-03-30T06:25:14;3.38;;;2.00;;
351;SDS011;164;50.784;6.496;2023-03-30T06:27:44;3.92;;;2.00;;
351;SDS011;164;50.784;6.496;2023-03-30T06:30:12;5.90;;;2.60;;
351;SDS011;164;50.784;6.496;2023-03-30T06:32:39;12.18;;;8.93;;
351;SDS011;164;50.784;6.496;2023-03-30T06:35:06;4.13;;;1.92;;
351;SDS011;164;50.784;6.496;2023-03-30T06:37:34;6.40;;;2.45;;
351;SDS011;164;50.784;6.496;2023-03-30T06:40:03;3.22;;;1.58;;
351;SDS011;164;50.784;6.496;2023-03-30T06:42:37;3.22;;;1.80;;
351;SDS011;164;50.784;6.496;2023-03-30T06:45:05;2.22;;;1.75;;
351;SDS011;164;50.784;6.496;2023-03-30T06:47:32;6.70;;;1.92;;
351;SDS011;164;50.784;6.496;2023-03-30T06:49:59;2.88;;;1.98;;
351;SDS011;164;50.784;6.496;2023-03-30T06:52:27;3.92;;;1.98;;
351;SDS011;164;50.784;6.496;2023-03-30T06:54:55;2.40;;;1.40;;
351;SDS011;164;50.784;6.496;2023-03-30T06:57:24;4.60;;;1.40;;
351;SDS011;164;50.784;6.496;2023-03-30T06:59:51;3.60;;;1.98;;
351;SDS011;164;50.784;6.496;2023-03-30T07:02:18;2.50;;;1.60;;
351;SDS011;164;50.784;6.496;2023-03-30T07:04:46;1.73;;;1.08;;
351;SDS011;164;50.784;6.496;2023-03-30T07:07:14;3.30;;;1.60;;
351;SDS011;164;50.784;6.496;2023-03-30T07:09:41;3.78;;;1.83;;
351;SDS011;164;50.784;6.496;2023-03-30T07:12:09;2.47;;;1.60;;
351;SDS011;164;50.784;6.496;2023-03-30T07:14:37;2.33;;;1.40;;
351;SDS011;164;50.784;6.496;2023-03-30T07:17:05;5.20;;;1.35;;
351;SDS011;164;50.784;6.496;2023-03-30T07:19:34;2.88;;;1.70;;
351;SDS011;164;50.784;6.496;2023-03-30T07:22:02;5.95;;;1.90;;
351;SDS011;164;50.784;6.496;2023-03-30T07:24:38;1.95;;;1.08;;
351;SDS011;164;50.784;6.496;2023-03-30T07:27:10;2.63;;;1.83;;
351;SDS011;164;50.784;6.496;2023-03-30T07:29:39;2.75;;;1.50;;
351;SDS011;164;50.784;6.496;2023-03-30T07:32:06;2.63;;;2.00;;
351;SDS011;164;50.784;6.496;2023-03-30T07:34:33;2.90;;;1.52;;
351;SDS011;164;50.784;6.496;2023-03-30T07:37:01;2.35;;;1.50;;
351;SDS011;164;50.784;6.496;2023-03-30T07:39:28;1.70;;;1.23;;
351;SDS011;164;50.784;6.496;2023-03-30T07:41:55;4.53;;;1.50;;
351;SDS011;164;50.784;6.496;2023-03-30T07:44:22;3.42;;;1.27;;
351;SDS011;164;50.784;6.496;2023-03-30T07:46:54;4.32;;;1.42;;
351;SDS011;164;50.784;6.496;2023-03-30T07:49:21;3.15;;;1.20;;
351;SDS011;164;50.784;6.496;2023-03-30T07:51:49;4.32;;;1.25;;
351;SDS011;164;50.784;6.496;2023-03-30T07:54:16;3.33;;;1.70;;
351;SDS011;164;50.784;6.496;2023-03-30T07:56:44;4.82;;;1.67;;
351;SDS011;164;50.784;6.496;2023-03-30T07:59:17;3.58;;;1.50;;
351;SDS011;164;50.784;6.496;2023-03-30T08:01:44;3.08;;;1.70;;
351;SDS011;164;50.784;6.496;2023-03-30T08:04:17;2.05;;;1.20;;
351;SDS011;164;50.784;6.496;2023-03-30T08:06:45;2.85;;;1.40;;
351;SDS011;164;50.784;6.496;2023-03-30T08:09:13;2.58;;;1.40;;
351;SDS011;164;50.784;6.496;2023-03-30T08:11:40;3.95;;;1.20;;
351;SDS011;164;50.784;6.496;2023-03-30T08:14:08;2.67;;;1.38;;
351;SDS011;164;50.784;6.496;2023-03-30T08:16:35;2.67;;;0.90;;
351;SDS011;164;50.784;6.496;2023-03-30T08:19:03;1.60;;;0.88;;
351;SDS011;164;50.784;6.496;2023-03-30T08:21:32;2.40;;;1.65;;
351;SDS011;164;50.784;6.496;2023-03-30T08:23:59;4.45;;;1.75;;
351;SDS011;164;50.784;6.496;2023-03-30T08:26:26;2.60;;;1.27;;
351;SDS011;164;50.784;6.496;2023-03-30T08:28:55;2.40;;;1.00;;
351;SDS011;164;50.784;6.496;2023-03-30T08:31:22;2.28;;;1.20;;
351;SDS011;164;50.784;6.496;2023-03-30T08:33:50;2.25;;;1.50;;
351;SDS011;164;50.784;6.496;2023-03-30T08:36:17;2.30;;;1.23;;
351;SDS011;164;50.784;6.496;2023-03-30T08:38:46;1.40;;;0.80;;
351;SDS011;164;50.784;6.496;2023-03-30T08:41:22;5.82;;;1.58;;
351;SDS011;164;50.784;6.496;2023-03-30T08:43:59;5.07;;;1.40;;
351;SDS011;164;50.784;6.496;2023-03-30T08:46:27;4.50;;;1.50;;
351;SDS011;164;50.784;6.496;2023-03-30T08:48:54;3.65;;;1.45;;
351;SDS011;164;50.784;6.496;2023-03-30T08:51:26;2.85;;;1.63;;
351;SDS011;164;50.784;6.496;2023-03-30T08:53:55;3.45;;;1.13;;
351;SDS011;164;50.784;6.496;2023-03-30T08:56:24;3.60;;;1.10;;
351;SDS011;164;50.784;6.496;2023-03-30T08:58:54;7.28;;;1.70;;
351;SDS011;164;50.784;6.496;2023-03-30T09:01:25;5.30;;;1.60;;
351;SDS011;164;50.784;6.496;2023-03-30T09:04:00;4.57;;;1.35;;
351;SDS011;164;50.784;6.496;2023-03-30T09:06:30;3.25;;;1.38;;
351;SDS011;164;50.784;6.496;2023-03-30T09:09:00;4.13;;;1.45;;
351;SDS011;164;50.784;6.496;2023-03-30T09:11:29;4.32;;;1.60;;
351;SDS011;164;50.784;6.496;2023-03-30T09:13:56;3.75;;;1.50;;
351;SDS011;164;50.784;6.496;2023-03-30T09:16:28;4.32;;;1.75;;
351;SDS011;164;50.784;6.496;2023-03-30T09:18:59;3.83;;;1.20;;
351;SDS011;164;50.784;6.496;2023-03-30T09:21:28;3.67;;;1.40;;
351;SDS011;164;50.784;6.496;2023-03-30T09:23:56;3.22;;;1.75;;
351;SDS011;164;50.784;6.496;2023-03-30T09:26:28;4.95;;;1.10;;
351;SDS011;164;50.784;6.496;2023-03-30T09:29:02;3.08;;;1.00;;
351;SDS011;164;50.784;6.496;2023-03-30T09:31:34;3.60;;;1.13;;
351;SDS011;164;50.784;6.496;2023-03-30T09:34:07;3.30;;;0.93;;
351;SDS011;164;50.784;6.496;2023-03-30T09:36:41;3.03;;;1.05;;
351;SDS011;164;50.784;6.496;2023-03-30T09:39:15;3.20;;;0.93;;
351;SDS011;164;50.784;6.496;2023-03-30T09:41:50;2.00;;;0.90;;
351;SDS011;164;50.784;6.496;2023-03-30T09:44:21;2.25;;;1.10;;
351;SDS011;164;50.784;6.496;2023-03-30T09:46:49;5.75;;;1.45;;
351;SDS011;164;50.784;6.496;2023-03-30T09:49:18;2.20;;;1.67;;
351;SDS011;164;50.784;6.496;2023-03-30T09:51:53;3.03;;;1.65;;
351;SDS011;164;50.784;6.496;2023-03-30T09:54:21;2.38;;;0.73;;
351;SDS011;164;50.784;6.496;2023-03-30T09:56:50;9.50;;;1.42;;
351;SDS011;164;50.784;6.496;2023-03-30T09:59:26;2.00;;;0.50;;
351;SDS011;164;50.784;6.496;2023-03-30T10:02:07;1.17;;;0.43;;
351;SDS011;164;50.784;6.496;2023-03-30T10:04:38;1.65;;;0.65;;
351;SDS011;164;50.784;6.496;2023-03-30T10:07:20;0.98;;;0.57;;
351;SDS011;164;50.784;6.496;2023-03-30T10:09:48;1.90;;;0.73;;
351;SDS011;164;50.784;6.496;2023-03-30T10:12:17;1.08;;;0.80;;
351;SDS011;164;50.784;6.496;2023-03-30T10:14:46;1.85;;;0.60;;
351;SDS011;164;50.784;6.496;2023-03-30T10:17:19;1.52;;;0.75;;
351;SDS011;164;50.784;6.496;2023-03-30T10:19:50;1.30;;;0.90;;
351;SDS011;164;50.784;6.496;2023-03-30T10:22:18;2.03;;;0.80;;
351;SDS011;164;50.784;6.496;2023-03-30T10:24:50;1.77;;;0.50;;
351;SDS011;164;50.784;6.496;2023-03-30T10:27:25;1.63;;;0.65;;
351;SDS011;164;50.784;6.496;2023-03-30T10:29:58;1.13;;;0.50;;
351;SDS011;164;50.784;6.496;2023-03-30T10:32:34;1.05;;;0.65;;
351;SDS011;164;50.784;6.496;2023-03-30T10:35:01;1.50;;;0.57;;
351;SDS011;164;50.784;6.496;2023-03-30T10:37:34;1.25;;;0.60;;
351;SDS011;164;50.784;6.496;2023-03-30T10:40:08;0.80;;;0.43;;
351;SDS011;164;50.784;6.496;2023-03-30T10:42:38;1.02;;;0.70;;
351;SDS011;164;50.784;6.496;2023-03-30T10:45:12;2.53;;;0.85;;
351;SDS011;164;50.784;6.496;2023-03-30T10:47:44;2.47;;;1.02;;
351;SDS011;164;50.784;6.496;2023-03-30T10:50:19;1.73;;;0.90;;
351;SDS011;164;50.784;6.496;2023-03-30T10:52:53;1.25;;;0.80;;
351;SDS011;164;50.784;6.496;2023-03-30T10:55:22;2.83;;;0.98;;
351;SDS011;164;50.784;6.496;2023-03-30T10:57:55;3.63;;;1.10;;
351;SDS011;164;50.784;6.496;2023-03-30T11:00:35;2.85;;;1.05;;
351;SDS011;164;50.784;6.496;2023-03-30T11:03:09;6.40;;;1.38;;
351;SDS011;164;50.784;6.496;2023-03-30T11:05:40;3.70;;;1.15;;
351;SDS011;164;50.784;6.496;2023-03-30T11:08:10;3.10;;;1.00;;
351;SDS011;164;50.784;6.496;2023-03-30T11:10:41;1.80;;;0.88;;
351;SDS011;164;50.784;6.496;2023-03-30T11:13:16;2.17;;;1.20;;
351;SDS011;164;50.784;6.496;2023-03-30T11:15:46;2.55;;;0.60;;
351;SDS011;164;50.784;6.496;2023-03-30T11:18:17;2.60;;;1.00;;
351;SDS011;164;50.784;6.496;2023-03-30T11:20:46;2.10;;;1.02;;
351;SDS011;164;50.784;6.496;2023-03-30T11:23:18;1.13;;;0.70;;
351;SDS011;164;50.784;6.496;2023-03-30T11:25:51;3.83;;;0.85;;
351;SDS011;164;50.784;6.496;2023-03-30T11:28:23;3.17;;;0.70;;
351;SDS011;164;50.784;6.496;2023-03-30T11:30:53;1.83;;;0.60;;
351;SDS011;164;50.784;6.496;2023-03-30T11:33:24;1.33;;;0.50;;
351;SDS011;164;50.784;6.496;2023-03-30T11:35:54;2.85;;;0.60;;
351;SDS011;164;50.784;6.496;2023-03-30T11:38:26;1.85;;;1.00;;
351;SDS011;164;50.784;6.496;2023-03-30T11:40:55;3.63;;;0.70;;
351;SDS011;164;50.784;6.496;2023-03-30T11:43:26;1.80;;;0.68;;
351;SDS011;164;50.784;6.496;2023-03-30T11:45:56;3.42;;;0.77;;
351;SDS011;164;50.784;6.496;2023-03-30T11:48:37;3.92;;;1.90;;
351;SDS011;164;50.784;6.496;2023-03-30T11:51:11;1.70;;;0.70;;
351;SDS011;164;50.784;6.496;2023-03-30T11:53:43;2.33;;;1.00;;
351;SDS011;164;50.784;6.496;2023-03-30T11:56:18;2.15;;;1.00;;
351;SDS011;164;50.784;6.496;2023-03-30T11:58:52;2.30;;;1.17;;
351;SDS011;164;50.784;6.496;2023-03-30T12:01:23;3.63;;;0.95;;
351;SDS011;164;50.784;6.496;2023-03-30T12:03:53;3.20;;;1.05;;
351;SDS011;164;50.784;6.496;2023-03-30T12:06:26;1.45;;;0.85;;
351;SDS011;164;50.784;6.496;2023-03-30T12:11:50;5.60;;;1.30;;
351;SDS011;164;50.784;6.496;2023-03-30T12:14:28;4.15;;;1.20;;
351;SDS011;164;50.784;6.496;2023-03-30T12:16:56;5.40;;;1.30;;
351;SDS011;164;50.784;6.496;2023-03-30T12:19:26;3.83;;;2.00;;
351;SDS011;164;50.784;6.496;2023-03-30T12:21:58;5.68;;;2.35;;
351;SDS011;164;50.784;6.496;2023-03-30T12:24:28;4.25;;;1.48;;
351;SDS011;164;50.784;6.496;2023-03-30T12:26:58;4.00;;;1.45;;
351;SDS011;164;50.784;6.496;2023-03-30T12:32:18;6.40;;;1.70;;
351;SDS011;164;50.784;6.496;2023-03-30T12:34:47;7.70;;;1.48;;
351;SDS011;164;50.784;6.496;2023-03-30T12:37:15;5.30;;;1.80;;
351;SDS011;164;50.784;6.496;2023-03-30T12:39:43;5.65;;;1.50;;
351;SDS011;164;50.784;6.496;2023-03-30T12:42:14;3.90;;;1.85;;
351;SDS011;164;50.784;6.496;2023-03-30T12:47:47;5.80;;;1.45;;
351;SDS011;164;50.784;6.496;2023-03-30T12:50:22;9.25;;;2.20;;
351;SDS011;164;50.784;6.496;2023-03-30T12:52:58;3.63;;;1.10;;
351;SDS011;164;50.784;6.496;2023-03-30T12:55:32;8.32;;;2.42;;
351;SDS011;164;50.784;6.496;2023-03-30T12:58:07;5.65;;;2.05;;
351;SDS011;164;50.784;6.496;2023-03-30T13:03:37;4.82;;;1.55;;
351;SDS011;164;50.784;6.496;2023-03-30T13:06:09;4.43;;;1.70;;
351;SDS011;164;50.784;6.496;2023-03-30T13:08:39;4.07;;;1.65;;
351;SDS011;164;50.784;6.496;2023-03-30T13:11:11;4.40;;;2.20;;
351;SDS011;164;50.784;6.496;2023-03-30T13:13:52;2.28;;;1.45;;
351;SDS011;164;50.784;6.496;2023-03-30T13:19:18;2.42;;;1.05;;
351;SDS011;164;50.784;6.496;2023-03-30T13:21:46;5.15;;;1.10;;
351;SDS011;164;50.784;6.496;2023-03-30T13:24:24;4.43;;;1.92;;
351;SDS011;164;50.784;6.496;2023-03-30T13:26:52;4.90;;;1.70;;
351;SDS011;164;50.784;6.496;2023-03-30T13:29:20;3.60;;;1.35;;
351;SDS011;164;50.784;6.496;2023-03-30T13:31:54;5.15;;;1.85;;
351;SDS011;164;50.784;6.496;2023-03-30T13:34:30;8.57;;;1.65;;
351;SDS011;164;50.784;6.496;2023-03-30T13:37:03;2.83;;;1.60;;
351;SDS011;164;50.784;6.496;2023-03-30T13:39:34;5.45;;;1.63;;
351;SDS011;164;50.784;6.496;2023-03-30T13:42:10;7.03;;;1.40;;
351;SDS011;164;50.784;6.496;2023-03-30T13:44:44;2.70;;;1.40;;
351;SDS011;164;50.784;6.496;2023-03-30T13:47:24;4.72;;;1.73;;
351;SDS011;164;50.784;6.496;2023-03-30T13:49:56;8.02;;;1.98;;
351;SDS011;164;50.784;6.496;2023-03-30T13:52:25;4.53;;;2.00;;
351;SDS011;164;50.784;6.496;2023-03-30T13:54:53;4.88;;;1.90;;
351;SDS011;164;50.784;6.496;2023-03-30T13:57:21;4.28;;;1.52;;
351;SDS011;164;50.784;6.496;2023-03-30T13:59:50;4.13;;;1.48;;
351;SDS011;164;50.784;6.496;2023-03-30T14:02:19;3.90;;;1.55;;
351;SDS011;164;50.784;6.496;2023-03-30T14:04:47;4.20;;;1.50;;
351;SDS011;164;50.784;6.496;2023-03-30T14:07:18;5.85;;;2.30;;
351;SDS011;164;50.784;6.496;2023-03-30T14:10:00;3.03;;;1.88;;
351;SDS011;164;50.784;6.496;2023-03-30T14:12:29;6.25;;;1.73;;
351;SDS011;164;50.784;6.496;2023-03-30T14:14:57;7.47;;;1.80;;
351;SDS011;164;50.784;6.496;2023-03-30T14:17:24;5.05;;;1.40;;
351;SDS011;164;50.784;6.496;2023-03-30T14:19:56;4.75;;;1.98;;
351;SDS011;164;50.784;6.496;2023-03-30T14:22:28;6.45;;;1.83;;
351;SDS011;164;50.784;6.496;2023-03-30T14:24:57;5.38;;;1.48;;
351;SDS011;164;50.784;6.496;2023-03-30T14:27:31;3.85;;;1.92;;
351;SDS011;164;50.784;6.496;2023-03-30T14:29:59;5.82;;;1.63;;
351;SDS011;164;50.784;6.496;2023-03-30T14:32:28;3.15;;;1.30;;
351;SDS011;164;50.784;6.496;2023-03-30T14:34:57;3.55;;;1.33;;
351;SDS011;164;50.784;6.496;2023-03-30T14:37:24;4.50;;;1.60;;
351;SDS011;164;50.784;6.496;2023-03-30T14:39:53;5.22;;;1.70;;
351;SDS011;164;50.784;6.496;2023-03-30T14:42:23;5.85;;;1.60;;
351;SDS011;164;50.784;6.496;2023-03-30T14:44:52;2.97;;;1.33;;
351;SDS011;164;50.784;6.496;2023-03-30T14:47:20;4.30;;;1.23;;
351;SDS011;164;50.784;6.496;2023-03-30T14:49:49;4.15;;;1.40;;
351;SDS011;164;50.784;6.496;2023-03-30T14:52:18;2.65;;;1.65;;
351;SDS011;164;50.784;6.496;2023-03-30T14:54:46;2.50;;;1.20;;
351;SDS011;164;50.784;6.496;2023-03-30T14:57:17;4.05;;;1.23;;
351;SDS011;164;50.784;6.496;2023-03-30T14:59:46;6.60;;;4.85;;
351;SDS011;164;50.784;6.496;2023-03-30T15:02:16;2.25;;;0.70;;
351;SDS011;164;50.784;6.496;2023-03-30T15:04:45;2.00;;;1.08;;
351;SDS011;164;50.784;6.496;2023-03-30T15:07:13;2.13;;;0.95;;
351;SDS011;164;50.784;6.496;2023-03-30T15:09:41;3.40;;;1.27;;
351;SDS011;164;50.784;6.496;2023-03-30T15:12:11;2.97;;;1.30;;
351;SDS011;164;50.784;6.496;2023-03-30T15:14:43;2.17;;;0.63;;
351;SDS011;164;50.784;6.496;2023-03-30T15:17:13;2.40;;;1.50;;
351;SDS011;164;50.784;6.496;2023-03-30T15:19:42;4.45;;;1.38;;
351;SDS011;164;50.784;6.496;2023-03-30T15:22:11;2.88;;;1.20;;
351;SDS011;164;50.784;6.496;2023-03-30T15:24:39;3.70;;;1.00;;
351;SDS011;164;50.784;6.496;2023-03-30T15:27:06;3.22;;;1.17;;
351;SDS011;164;50.784;6.496;2023-03-30T15:29:35;2.55;;;0.93;;
351;SDS011;164;50.784;6.496;2023-03-30T15:32:12;3.42;;;1.40;;
351;SDS011;164;50.784;6.496;2023-03-30T15:37:22;2.50;;;1.00;;
351;SDS011;164;50.784;6.496;2023-03-30T15:39:51;3.92;;;1.17;;
351;SDS011;164;50.784;6.496;2023-03-30T15:42:22;3.35;;;1.90;;
351;SDS011;164;50.784;6.496;2023-03-30T15:45:00;2.95;;;1.00;;
351;SDS011;164;50.784;6.496;2023-03-30T15:47:29;4.68;;;1.30;;
351;SDS011;164;50.784;6.496;2023-03-30T15:49:57;4.00;;;1.05;;
351;SDS011;164;50.784;6.496;2023-03-30T15:52:25;4.20;;;1.35;;
351;SDS011;164;50.784;6.496;2023-03-30T15:54:56;6.35;;;1.30;;
351;SDS011;164;50.784;6.496;2023-03-30T15:57:28;4.38;;;2.20;;
351;SDS011;164;50.784;6.496;2023-03-30T15:59:56;5.07;;;1.48;;
351;SDS011;164;50.784;6.496;2023-03-30T16:02:35;3.20;;;1.02;;
351;SDS011;164;50.784;6.496;2023-03-30T16:05:04;4.70;;;1.42;;
351;SDS011;164;50.784;6.496;2023-03-30T16:07:32;4.07;;;1.35;;
351;SDS011;164;50.784;6.496;2023-03-30T16:10:00;7.88;;;1.65;;
351;SDS011;164;50.784;6.496;2023-03-30T16:12:28;2.20;;;0.93;;
351;SDS011;164;50.784;6.496;2023-03-30T16:14:56;3.25;;;1.10;;
351;SDS011;164;50.784;6.496;2023-03-30T16:17:23;2.50;;;1.15;;
351;SDS011;164;50.784;6.496;2023-03-30T16:19:53;2.55;;;1.00;;
351;SDS011;164;50.784;6.496;2023-03-30T16:22:20;3.25;;;0.95;;
351;SDS011;164;50.784;6.496;2023-03-30T16:24:47;2.35;;;0.85;;
351;SDS011;164;50.784;6.496;2023-03-30T16:27:15;2.13;;;0.90;;
351;SDS011;164;50.784;6.496;2023-03-30T16:29:42;3.45;;;1.00;;
351;SDS011;164;50.784;6.496;2023-03-30T16:32:09;3.95;;;0.95;;
351;SDS011;164;50.784;6.496;2023-03-30T16:34:37;3.05;;;1.13;;